Archives de nos stations météo

Station météo de Luçay-le-Libre

Altitude de la station : 138 m






Données météorologiques pour le 04/02/2023
Date
Heure
Températures Humidité Point de rosée Vitesse
du vent
Direction Rafales Windchill Pression Pluviométrie
Cumul
Date
Heure
Températures Humidité Point de rosée Vitesse
du vent
Direction Rafales Windchill Pression Pluviométrie
Cumul
04/02/2023 22:207.9 °C88 %6.1 °C6 km/hNO8 km/h6.7 1040 hPa-
04/02/2023 22:157.9 °C88 %6.1 °C3 km/hNO13 km/h7.2 1039 hPa-
04/02/2023 22:047.9 °C87 %6.1 °C3 km/hNO8 km/h7.2 1039 hPa-
04/02/2023 22:007.9 °C88 %6.1 °C5 km/hNO13 km/h7.2 1039 hPa-
04/02/2023 21:497.9 °C87 %6.1 °C5 km/hNO8 km/h7.2 1039 hPa-
04/02/2023 21:457.9 °C87 %6.1 °C5 km/hNO13 km/h7.2 1039 hPa-
04/02/2023 21:347.9 °C87 %6.1 °C6 km/hNNO10 km/h6.7 1039 hPa-
04/02/2023 21:307.9 °C88 %6.1 °C5 km/hNO13 km/h7.2 1039 hPa-
04/02/2023 21:197.7 °C89 %6.1 °C---7.8 1039 hPa-
04/02/2023 21:157.7 °C89 %6.1 °C-NO13 km/h7.8 1039 hPa-
04/02/2023 21:047.9 °C88 %6.1 °C---7.8 1039 hPa-
04/02/2023 21:008.0 °C88 %6.1 °C-NO13 km/h7.8 1039 hPa-
04/02/2023 20:497.9 °C88 %6.1 °C---7.8 1039 hPa-
04/02/2023 20:447.9 °C88 %6.1 °C-NO13 km/h7.8 1039 hPa-
04/02/2023 20:338.1 °C87 %6.1 °C-NO2 km/h8.3 1039 hPa-
04/02/2023 20:298.2 °C87 %6.1 °C2 km/hNO13 km/h8.3 1039 hPa-
04/02/2023 20:218.1 °C87 %6.1 °C2 km/hNO3 km/h8.3 1039 hPa-
04/02/2023 20:158.1 °C87 %6.1 °C2 km/hNO13 km/h8.3 1039 hPa-
04/02/2023 20:078.1 °C88 %6.1 °C-NO3 km/h8.3 1039 hPa-
04/02/2023 20:008.1 °C87 %6.1 °C-NNO13 km/h8.3 1039 hPa-
04/02/2023 19:498.2 °C87 %6.1 °C-NNO2 km/h8.3 1039 hPa-
04/02/2023 19:458.2 °C87 %6.1 °C2 km/hNNO13 km/h8.3 1039 hPa-
04/02/2023 19:368.2 °C87 %6.1 °C3 km/hNNO3 km/h7.8 1039 hPa-
04/02/2023 19:308.2 °C87 %6.1 °C2 km/hNNO13 km/h8.3 1039 hPa-
04/02/2023 19:228.2 °C87 %6.1 °C2 km/hNO3 km/h8.3 1039 hPa-
04/02/2023 19:158.2 °C88 %6.1 °C2 km/hNNO13 km/h8.3 1039 hPa-
04/02/2023 19:048.2 °C88 %6.7 °C3 km/hNNO3 km/h7.8 1039 hPa-
04/02/2023 19:008.3 °C88 %6.7 °C3 km/hNNO13 km/h7.8 1039 hPa-
04/02/2023 18:498.3 °C87 %6.1 °C3 km/hNNO6 km/h7.8 1038 hPa-
04/02/2023 18:458.4 °C87 %6.7 °C5 km/hNNO13 km/h7.8 1038 hPa-
04/02/2023 18:348.4 °C87 %6.7 °C5 km/hNO6 km/h7.8 1038 hPa-
04/02/2023 18:308.4 °C87 %6.7 °C6 km/hNNO13 km/h7.2 1038 hPa-
04/02/2023 18:198.6 °C87 %6.7 °C3 km/hNO5 km/h7.8 1038 hPa-
04/02/2023 18:158.7 °C87 %6.7 °C3 km/hNO13 km/h8.3 1038 hPa-
04/02/2023 18:048.7 °C87 %6.7 °C3 km/hNNO5 km/h8.3 1038 hPa-
04/02/2023 18:008.8 °C87 %6.7 °C3 km/hNNO13 km/h8.3 1038 hPa-
04/02/2023 17:498.9 °C86 %6.7 °C6 km/hNO11 km/h7.8 1038 hPa-
04/02/2023 17:458.9 °C86 %6.7 °C6 km/hNNO13 km/h7.8 1038 hPa-
04/02/2023 17:349.1 °C86 %6.7 °C8 km/hNO13 km/h7.8 1038 hPa-
04/02/2023 17:309.1 °C86 %6.7 °C11 km/hN13 km/h6.7 1038 hPa-
04/02/2023 17:199.2 °C86 %7.2 °C8 km/hNNO10 km/h8.3 1038 hPa-
04/02/2023 17:159.3 °C86 %7.2 °C8 km/hNNO13 km/h8.3 1038 hPa-
04/02/2023 17:049.4 °C87 %7.2 °C6 km/hNNO13 km/h8.3 1038 hPa-
04/02/2023 17:009.4 °C88 %7.8 °C5 km/hNNO13 km/h8.9 1038 hPa-
04/02/2023 16:499.4 °C87 %7.2 °C5 km/hNNO10 km/h8.9 1038 hPa-
04/02/2023 16:459.4 °C88 %7.8 °C5 km/hNNO13 km/h8.9 1038 hPa-
04/02/2023 16:349.4 °C88 %7.8 °C8 km/hNNO11 km/h8.3 1038 hPa-
04/02/2023 16:309.5 °C88 %7.8 °C5 km/hNNO13 km/h8.9 1038 hPa-
04/02/2023 16:199.6 °C88 %7.8 °C3 km/hNNO8 km/h8.9 1038 hPa-
04/02/2023 16:159.6 °C88 %7.8 °C3 km/hNNO13 km/h8.9 1038 hPa-
04/02/2023 16:059.6 °C88 %7.8 °C6 km/hNNO6 km/h8.3 1038 hPa-
04/02/2023 16:009.6 °C88 %7.8 °C5 km/hNNO13 km/h8.9 1038 hPa-
04/02/2023 15:499.6 °C88 %7.8 °C3 km/hNNO10 km/h8.9 1038 hPa-
04/02/2023 15:459.7 °C88 %7.8 °C8 km/hN13 km/h8.3 1038 hPa-
04/02/2023 15:349.7 °C88 %7.8 °C6 km/hN13 km/h8.3 1038 hPa-
04/02/2023 15:309.7 °C88 %7.8 °C10 km/hNNO13 km/h7.8 1038 hPa-
04/02/2023 15:209.8 °C89 %8.3 °C6 km/hNNO10 km/h8.9 1037 hPa-
04/02/2023 15:159.8 °C88 %7.8 °C6 km/hNNO13 km/h8.9 1038 hPa-
04/02/2023 15:059.9 °C88 %7.8 °C11 km/hN13 km/h8.3 1038 hPa-
04/02/2023 15:009.9 °C89 %8.3 °C8 km/hNNO11 km/h8.9 1038 hPa-
04/02/2023 14:509.9 °C89 %8.3 °C5 km/hNNO8 km/h9.4 1038 hPa-
04/02/2023 14:459.8 °C90 %8.3 °C3 km/hNO11 km/h9.4 1038 hPa-
04/02/2023 14:359.8 °C90 %8.3 °C6 km/hNO10 km/h8.9 1038 hPa-
04/02/2023 14:309.7 °C90 %8.3 °C5 km/hNNO11 km/h8.9 1038 hPa-
04/02/2023 14:199.7 °C90 %8.3 °C8 km/hNNE10 km/h8.9 1038 hPa-
04/02/2023 14:149.7 °C90 %8.3 °C6 km/hNNO11 km/h8.3 1038 hPa-
04/02/2023 14:049.6 °C90 %8.3 °C5 km/hNO8 km/h8.9 1038 hPa-
04/02/2023 14:009.6 °C90 %8.3 °C5 km/hNO11 km/h8.9 1038 hPa-
04/02/2023 13:499.6 °C93 %8.3 °C3 km/hNNO6 km/h8.9 1038 hPa-
04/02/2023 13:459.3 °C92 %8.3 °C6 km/hNO11 km/h8.3 1038 hPa-
04/02/2023 13:349.2 °C92 %7.8 °C3 km/hNO10 km/h8.9 1038 hPa-
04/02/2023 13:309.3 °C93 %8.3 °C8 km/hNNO11 km/h8.3 1038 hPa-
04/02/2023 13:199.2 °C94 %8.3 °C6 km/hNNO6 km/h8.3 1038 hPa-
04/02/2023 13:158.9 °C93 %7.8 °C6 km/hNO11 km/h7.8 1038 hPa-
04/02/2023 13:048.9 °C93 %7.8 °C3 km/hNNO6 km/h8.3 1038 hPa-
04/02/2023 13:008.9 °C93 %7.8 °C6 km/hNNO11 km/h7.8 1038 hPa-
04/02/2023 12:499.0 °C92 %7.8 °C3 km/hN10 km/h8.3 1038 hPa-
04/02/2023 12:459.1 °C92 %7.8 °C6 km/hNO11 km/h7.8 1038 hPa-
04/02/2023 12:359.3 °C91 %7.8 °C6 km/hNNO10 km/h8.3 1038 hPa-
04/02/2023 12:309.6 °C91 %8.3 °C6 km/hNNO11 km/h8.3 1038 hPa-
04/02/2023 12:199.4 °C92 %8.3 °C6 km/hN6 km/h8.3 1038 hPa-
04/02/2023 12:159.3 °C91 %7.8 °C5 km/hNNO8 km/h8.9 1038 hPa-
04/02/2023 12:049.0 °C92 %7.8 °C3 km/hNO6 km/h8.3 1038 hPa-
04/02/2023 12:008.8 °C92 %7.8 °C2 km/hNNO8 km/h8.9 1038 hPa-
04/02/2023 11:498.6 °C93 %7.8 °C5 km/hNNO8 km/h8.3 1038 hPa-
04/02/2023 11:458.7 °C93 %7.8 °C3 km/hNNO8 km/h8.3 1038 hPa-
04/02/2023 11:348.4 °C93 %7.2 °C2 km/hNNO5 km/h8.3 1038 hPa-
04/02/2023 11:308.4 °C94 %7.8 °C2 km/hN8 km/h8.3 1038 hPa-
04/02/2023 11:198.1 °C94 %7.2 °C-N8 km/h8.3 1038 hPa-
04/02/2023 11:158.1 °C94 %7.2 °C6 km/hNNO8 km/h7.2 1038 hPa-
04/02/2023 11:048.1 °C94 %7.2 °C2 km/hNO5 km/h8.3 1038 hPa-
04/02/2023 11:008.2 °C94 %7.2 °C3 km/hNNO5 km/h7.8 1038 hPa-
04/02/2023 10:508.0 °C94 %7.2 °C2 km/hNNO5 km/h7.8 1038 hPa-
04/02/2023 10:458.0 °C94 %7.2 °C-NNO5 km/h7.8 1038 hPa-
04/02/2023 10:358.0 °C94 %7.2 °C5 km/hNNO5 km/h7.2 1038 hPa-
04/02/2023 10:307.9 °C94 %7.2 °C-ENE5 km/h7.8 1038 hPa-
04/02/2023 10:197.8 °C94 %6.7 °C3 km/hNO5 km/h7.2 1038 hPa-
04/02/2023 10:157.7 °C94 %6.7 °C-NNO5 km/h7.8 1038 hPa-
04/02/2023 10:057.4 °C94 %6.7 °C-NNO3 km/h7.2 1038 hPa-
04/02/2023 10:007.4 °C94 %6.7 °C2 km/hNO3 km/h7.2 1038 hPa-
04/02/2023 09:507.2 °C94 %6.1 °C---7.2 1038 hPa-
04/02/2023 09:457.2 °C94 %6.1 °C-NNO3 km/h7.2 1038 hPa-
04/02/2023 09:357.1 °C94 %6.1 °C-NNO3 km/h7.2 1038 hPa-
04/02/2023 09:307.0 °C94 %6.1 °C-NNO3 km/h7.2 1038 hPa-
04/02/2023 09:196.9 °C93 %6.1 °C2 km/hN3 km/h7.2 1038 hPa-
04/02/2023 09:156.8 °C93 %5.6 °C-NNO3 km/h6.7 1038 hPa-
04/02/2023 09:046.8 °C93 %5.6 °C2 km/hNNO3 km/h6.7 1038 hPa-
04/02/2023 09:006.8 °C93 %5.6 °C2 km/hNNO3 km/h6.7 1038 hPa-
04/02/2023 08:496.8 °C92 %5.6 °C2 km/hNNO3 km/h6.7 1038 hPa-
04/02/2023 08:456.8 °C92 %5.6 °C2 km/hNNO3 km/h6.7 1037 hPa-
04/02/2023 08:346.7 °C91 %5.6 °C---6.7 1037 hPa-
04/02/2023 08:306.7 °C91 %5.6 °C-ONO2 km/h6.7 1038 hPa-
04/02/2023 08:196.8 °C91 %5.6 °C-ONO2 km/h6.7 1037 hPa-
04/02/2023 08:156.8 °C91 %5.6 °C-ONO2 km/h6.7 1037 hPa-
04/02/2023 08:056.6 °C91 %5.6 °C---6.7 1037 hPa-
04/02/2023 08:006.6 °C91 %5.0 °C-ONO2 km/h6.7 1037 hPa-
04/02/2023 07:496.4 °C91 %5.0 °C---6.7 1037 hPa-
04/02/2023 07:456.4 °C91 %5.0 °C-ONO2 km/h6.7 1037 hPa-
04/02/2023 07:356.4 °C91 %5.0 °C---6.7 1037 hPa-
04/02/2023 07:316.4 °C91 %5.0 °C-ONO2 km/h6.7 1037 hPa-
04/02/2023 07:206.4 °C91 %5.0 °C---6.7 1037 hPa-
04/02/2023 07:156.4 °C91 %5.0 °C-ONO2 km/h6.7 1037 hPa-
04/02/2023 07:046.5 °C90 %5.0 °C-ONO2 km/h6.7 1037 hPa-
04/02/2023 07:006.5 °C90 %5.0 °C-ONO2 km/h6.7 1037 hPa-
04/02/2023 06:496.4 °C90 %5.0 °C-NO2 km/h6.7 1037 hPa-
04/02/2023 06:446.4 °C90 %5.0 °C-NO2 km/h6.7 1037 hPa-
04/02/2023 06:346.4 °C90 %5.0 °C---6.7 1037 hPa-
04/02/2023 06:296.4 °C90 %5.0 °C-ONO2 km/h6.7 1037 hPa-
04/02/2023 06:196.4 °C90 %5.0 °C---6.7 1037 hPa-
04/02/2023 06:146.4 °C90 %5.0 °C-ONO2 km/h6.7 1037 hPa-
04/02/2023 06:046.4 °C90 %5.0 °C---6.7 1037 hPa-
04/02/2023 05:596.5 °C90 %5.0 °C-ONO2 km/h6.7 1037 hPa-
04/02/2023 05:496.6 °C89 %5.0 °C---6.7 1037 hPa-
04/02/2023 05:456.5 °C89 %5.0 °C-ONO2 km/h6.7 1037 hPa-
04/02/2023 05:346.6 °C89 %5.0 °C-ONO2 km/h6.7 1037 hPa-
04/02/2023 05:306.6 °C89 %5.0 °C-ONO2 km/h6.7 1037 hPa-
04/02/2023 05:196.6 °C89 %5.0 °C---6.7 1037 hPa-
04/02/2023 05:146.6 °C89 %5.0 °C-O2 km/h6.7 1037 hPa-
04/02/2023 05:046.6 °C88 %5.0 °C---6.7 1037 hPa-
04/02/2023 05:006.6 °C89 %5.0 °C-O2 km/h6.7 1037 hPa-
04/02/2023 04:496.4 °C89 %5.0 °C---6.7 1037 hPa-
04/02/2023 04:456.4 °C89 %5.0 °C-O2 km/h6.7 1037 hPa-
04/02/2023 04:346.5 °C88 %4.4 °C---6.7 1037 hPa-
04/02/2023 04:306.6 °C88 %5.0 °C-O2 km/h6.7 1037 hPa-
04/02/2023 04:196.6 °C88 %5.0 °C---6.7 1037 hPa-
04/02/2023 04:156.6 °C88 %5.0 °C-O2 km/h6.7 1037 hPa-
04/02/2023 04:046.6 °C88 %5.0 °C-O2 km/h6.7 1037 hPa-
04/02/2023 04:006.6 °C88 %5.0 °C-O2 km/h6.7 1037 hPa-
04/02/2023 03:496.6 °C88 %5.0 °C---6.7 1037 hPa-
04/02/2023 03:456.7 °C88 %5.0 °C-O2 km/h6.7 1037 hPa-
04/02/2023 03:346.7 °C87 %4.4 °C---6.7 1037 hPa-
04/02/2023 03:306.7 °C87 %5.0 °C-O2 km/h6.7 1037 hPa-
04/02/2023 03:196.7 °C87 %5.0 °C---6.7 1037 hPa-
04/02/2023 03:156.7 °C87 %4.4 °C-O2 km/h6.7 1037 hPa-
04/02/2023 03:046.7 °C87 %4.4 °C---6.7 1037 hPa-
04/02/2023 03:006.7 °C87 %4.4 °C-O2 km/h6.7 1037 hPa-
04/02/2023 02:496.6 °C88 %5.0 °C---6.7 1037 hPa-
04/02/2023 02:456.6 °C88 %5.0 °C-O2 km/h6.7 1037 hPa-
04/02/2023 02:346.6 °C88 %5.0 °C---6.7 1037 hPa-
04/02/2023 02:306.5 °C88 %4.4 °C-O2 km/h6.7 1037 hPa-
04/02/2023 02:196.6 °C88 %5.0 °C---6.7 1037 hPa-
04/02/2023 02:156.6 °C88 %5.0 °C-O2 km/h6.7 1037 hPa-
04/02/2023 02:046.6 °C88 %5.0 °C---6.7 1037 hPa-
04/02/2023 02:006.6 °C88 %5.0 °C-O2 km/h6.7 1037 hPa-
04/02/2023 01:546.6 °C87 %4.4 °C---6.7 1037 hPa-
04/02/2023 01:456.6 °C87 %4.4 °C-O2 km/h6.7 1037 hPa-
04/02/2023 01:396.6 °C87 %4.4 °C---6.7 1037 hPa-
04/02/2023 01:306.7 °C87 %5.0 °C-O2 km/h6.7 1037 hPa-
04/02/2023 01:256.7 °C86 %4.4 °C---6.7 1037 hPa-
04/02/2023 01:156.8 °C86 %4.4 °C-O2 km/h6.7 1037 hPa-
04/02/2023 01:116.8 °C86 %4.4 °C---6.7 1037 hPa-
04/02/2023 01:006.9 °C86 %5.0 °C-O2 km/h6.7 1037 hPa-
04/02/2023 00:556.9 °C86 %5.0 °C---7.2 1037 hPa-
04/02/2023 00:456.9 °C86 %5.0 °C-O2 km/h7.2 1037 hPa-
04/02/2023 00:356.8 °C86 %4.4 °C-O2 km/h6.7 1037 hPa-
04/02/2023 00:306.8 °C86 %4.4 °C-O2 km/h6.7 1037 hPa-
04/02/2023 00:206.8 °C86 %4.4 °C---6.7 1037 hPa-
04/02/2023 00:156.8 °C86 %4.4 °C---6.7 1037 hPa-
04/02/2023 00:046.8 °C86 %4.4 °C---6.7 1037 hPa-
04/02/2023 00:006.8 °C86 %4.4 °C-NO10 km/h6.7 1037 hPa-


Minima :

Température : 6.4 °C
Humidité : 86 %
Point de rosée : 4.4 °C
Vent moyen : 2 km/h
Windchill : 6.7
Pression atm. : 1037 hPa
Maxima :

Température : 9.9 °C
Humidité : 94 %
Point de rosée : 8.3 °C
Vent moyen : 11 km/h
Windchill : 9.4
Pression atm. : 1040 hPa
Rafales max : 13 km/h
Cumul de pluie sur 24H : 0 mm

Luçay-le-Libre est une commune du département Indre (36).
La station météorologique du réseau de l'association la plus proche de Luçay-le-Libre est celle de Graçay


Descriptif du réseau de station de l'association Météo Centre (R.S.M.C)

Carte de la région Centre - Val de Loire

Carte de la région Centre - Val de Loire couvert par notre réseau météorologique

L'association météo centre et ses bénévoles développent et gère ce réseau. Il regroupe des stations météorologiques semi-professionnelles de marque Davis Instruments et est notamment composé de Davis Vantage Pro 2 mais aussi de Davis Vantage Vue.

Ce sont des passionnés de météorologie qui, avec ou sans l'aide de l'association, implantent ce type de matériel depuis la création de notre organisation en 2011.

Les données de chaque station de réseau sont hébergées sur le serveur de l'association. Elles sont ensuite mises gratuitement à votre disposition sur cette page, mais également sur la carte d'observation météorologique du Centre - Val de Loire.

Certaines stations sont installées en dehors de notre région. Elles permettent d'avoir une vision plus large des conditions météorologiques autour de notre territoire, retrouvez ici la carte de notre réseau de station Météo Centre (R.S.M.C).

Notre réseau surveille donc en permanence les conditions météo dans la région Centre - Val de Loire. Si vous possédez du matériel météo de marque Davis, faite comme plus de 60 autres passionnés, contactez nous pour nous rejoindre.


Contenu des archives météo de notre réseau

Chaque station météo du réseau émet les données suivantes toutes les 15 à 30 minutes :

Station météorologique Davis Vantage Pro 2

Exemple de station météorologique du réseau de station Météo Centre

  • la température extérieure
  • l'humidité
  • le point de rosée
  • la vitesse du vent
  • la direction du vent
  • les rafales
  • le windchill (refroidissement éolien)
  • la pression
  • le cumul de pluie

Nous archivons ces informations météorologiques et nous les mettons gratuitement à disposition du grand public. Nous les partageons également avec des professionnels, des collectivités voire des établissements publics quand ils en expriment le besoin.

Toutefois, les archives des stations ne sont pas toutes aussi anciennes puisque les installations se déroulent année après année. Retrouvez ces archives météo pour la région Centre - Val de Loire en cliquant ici.

Merci à tous les propriétaires de stations météorologiques de partager leurs données mais aussi de les rendre accessibles au plus grand nombre.